Time;durP1;ratioP1;P1;durP2;ratioP2;P2;SDS_P1;SDS_P2;PMS_P1;PMS_P2;Temp;Humidity;BMP_temperature;BMP_pressure;BME280_temperature;BME280_humidity;BME280_pressure;Samples;Min_cycle;Max_cycle;Signal;HPM_P1;HPM_P2
2024/01/01 00:00:53;;;;;;;52.60;30.90;;;;;;;2.57;90.33;99739.31;216181;1254;72630;-75
2024/01/01 00:05:44;;;;;;;48.10;29.60;;;;;;;2.57;90.47;99723.21;216181;1254;60490;-74
2024/01/01 00:10:36;;;;;;;41.70;28.30;;;;;;;2.54;90.33;99721.57;216189;1257;60443;-75
2024/01/01 00:15:28;;;;;;;40.50;26.50;;;;;;;2.50;90.24;99719.75;216177;1253;64752;-74
2024/01/01 00:20:20;;;;;;;43.50;26.50;;;;;;;2.47;90.52;99708.55;216301;1254;61197;-75
2024/01/01 00:25:12;;;;;;;40.40;26.30;;;;;;;2.43;90.48;99711.48;216109;1255;60637;-74
2024/01/01 00:30:04;;;;;;;48.20;27.60;;;;;;;2.40;90.48;99700.77;216166;1254;66946;-74
2024/01/01 00:34:55;;;;;;;40.90;25.70;;;;;;;2.40;90.47;99708.64;216241;1254;60443;-74
2024/01/01 00:39:47;;;;;;;40.90;28.40;;;;;;;2.39;90.52;99711.84;216239;1254;60451;-75
2024/01/01 00:44:38;;;;;;;40.60;26.60;;;;;;;2.41;90.61;99712.08;216105;1253;62075;-74
2024/01/01 00:49:30;;;;;;;42.80;28.20;;;;;;;2.43;90.59;99718.84;216094;1254;60443;-75
2024/01/01 00:54:24;;;;;;;42.60;25.00;;;;;;;2.46;90.59;99719.27;216163;1253;60453;-74
2024/01/01 00:59:15;;;;;;;40.40;26.50;;;;;;;2.50;90.86;99705.03;216159;1254;73179;-74
2024/01/01 01:04:07;;;;;;;41.40;25.80;;;;;;;2.52;90.54;99698.94;216233;1253;60405;-75
2024/01/01 01:08:59;;;;;;;41.40;24.90;;;;;;;2.49;90.99;99705.18;216250;1254;60462;-75
2024/01/01 01:13:50;;;;;;;34.50;22.40;;;;;;;2.45;90.82;99706.73;216231;1254;72535;-74
2024/01/01 01:18:41;;;;;;;36.90;23.40;;;;;;;2.41;90.78;99702.33;216111;1256;60449;-74
2024/01/01 01:23:33;;;;;;;37.10;25.30;;;;;;;2.37;90.86;99699.96;216238;1253;60466;-74
2024/01/01 01:28:24;;;;;;;34.40;23.30;;;;;;;2.34;90.87;99695.43;216153;1254;60459;-74
2024/01/01 01:33:17;;;;;;;38.90;25.00;;;;;;;2.33;90.84;99691.48;216126;1254;60562;-75
2024/01/01 01:38:08;;;;;;;37.30;23.00;;;;;;;2.30;90.87;99690.69;216300;1254;60403;-74
2024/01/01 01:43:00;;;;;;;36.00;24.80;;;;;;;2.28;90.71;99689.27;216290;1253;65704;-74
2024/01/01 01:47:53;;;;;;;34.70;24.10;;;;;;;2.30;91.02;99680.59;216016;1254;60542;-74
2024/01/01 01:52:45;;;;;;;40.50;24.20;;;;;;;2.28;90.93;99688.75;216456;1254;61046;-74
2024/01/01 01:57:38;;;;;;;36.10;22.90;;;;;;;2.30;91.19;99698.58;216044;1253;60418;-74
2024/01/01 02:02:34;;;;;;;38.70;23.60;;;;;;;2.34;91.23;99707.75;216157;1253;60459;-76
2024/01/01 02:07:25;;;;;;;44.80;26.20;;;;;;;2.37;91.37;99703.24;216245;1257;71931;-75
2024/01/01 02:12:17;;;;;;;34.30;23.10;;;;;;;2.38;91.31;99689.59;215986;1254;60437;-74
2024/01/01 02:17:08;;;;;;;35.40;23.80;;;;;;;2.37;91.09;99684.94;216216;1254;60527;-74
2024/01/01 02:22:01;;;;;;;35.30;24.60;;;;;;;2.33;90.75;99682.75;216096;1254;60440;-74
2024/01/01 02:26:52;;;;;;;35.60;22.60;;;;;;;2.28;91.10;99673.00;216272;1254;60532;-74
2024/01/01 02:31:45;;;;;;;34.30;22.30;;;;;;;2.19;90.97;99675.63;216301;1254;61241;-74
2024/01/01 02:36:39;;;;;;;34.80;22.30;;;;;;;2.11;91.02;99671.41;216356;1254;65918;-74
2024/01/01 02:41:35;;;;;;;34.60;21.30;;;;;;;2.02;91.01;99670.59;216340;1254;60440;-74
2024/01/01 02:46:27;;;;;;;35.80;22.40;;;;;;;1.92;90.69;99666.48;216374;1254;75795;-74
2024/01/01 02:51:18;;;;;;;32.20;22.30;;;;;;;1.84;91.09;99650.16;216312;1256;60421;-74
2024/01/01 02:56:18;;;;;;;34.70;22.60;;;;;;;1.76;90.63;99643.36;216482;1253;60450;-74
2024/01/01 03:01:09;;;;;;;31.70;21.50;;;;;;;1.64;90.35;99642.58;216279;1252;71372;-74
2024/01/01 03:06:01;;;;;;;33.00;21.00;;;;;;;1.55;90.40;99647.56;216278;1254;60463;-74
2024/01/01 03:10:52;;;;;;;40.10;23.40;;;;;;;1.49;90.45;99645.16;216167;1254;60563;-74
2024/01/01 03:15:44;;;;;;;33.20;22.00;;;;;;;1.43;90.28;99642.56;216197;1253;60533;-74
2024/01/01 03:20:35;;;;;;;32.90;21.10;;;;;;;1.34;90.17;99641.55;216107;1254;60428;-74
2024/01/01 03:25:26;;;;;;;31.30;20.90;;;;;;;1.26;89.78;99639.52;216306;1254;60453;-74
2024/01/01 03:30:19;;;;;;;33.70;21.00;;;;;;;1.20;90.22;99642.37;216388;1253;66896;-76
2024/01/01 03:35:11;;;;;;;32.80;20.90;;;;;;;1.15;89.91;99639.48;216365;1254;60581;-74
2024/01/01 03:40:06;;;;;;;30.40;20.10;;;;;;;1.11;90.16;99638.31;216368;1252;60402;-74
2024/01/01 03:44:58;;;;;;;36.50;21.20;;;;;;;1.03;89.54;99636.79;216004;1253;72644;-75
2024/01/01 03:49:49;;;;;;;32.50;22.50;;;;;;;0.98;89.71;99637.45;216277;1252;60517;-74
2024/01/01 03:54:41;;;;;;;32.00;21.00;;;;;;;0.92;89.51;99628.86;216350;1253;60554;-74
2024/01/01 03:59:32;;;;;;;28.70;20.50;;;;;;;0.88;89.64;99632.66;216312;1253;60457;-74
2024/01/01 04:04:23;;;;;;;35.90;22.40;;;;;;;0.83;89.40;99628.54;216181;1254;60529;-74
2024/01/01 04:09:15;;;;;;;35.40;21.10;;;;;;;0.78;89.29;99624.40;216232;1252;60526;-74
2024/01/01 04:14:06;;;;;;;31.10;21.60;;;;;;;0.72;89.07;99621.30;216122;1253;67157;-74
2024/01/01 04:18:58;;;;;;;34.70;21.80;;;;;;;0.72;89.36;99619.40;216270;1252;60527;-74
2024/01/01 04:23:50;;;;;;;32.70;21.10;;;;;;;0.71;89.40;99616.14;216183;1253;60658;-74
2024/01/01 04:28:41;;;;;;;33.60;20.30;;;;;;;0.69;89.18;99614.52;216354;1253;60967;-74
2024/01/01 04:33:33;;;;;;;34.60;21.10;;;;;;;0.70;89.68;99612.67;216270;1254;60788;-73
2024/01/01 04:38:24;;;;;;;33.80;21.30;;;;;;;0.71;89.44;99605.02;216246;1253;60466;-74
2024/01/01 04:43:17;;;;;;;35.30;22.40;;;;;;;0.70;89.47;99596.15;216214;1253;72438;-74
2024/01/01 04:48:08;;;;;;;34.40;21.50;;;;;;;0.65;89.03;99592.02;216186;1253;60552;-74
2024/01/01 04:53:00;;;;;;;32.30;20.80;;;;;;;0.60;89.15;99584.34;216309;1253;60531;-74
2024/01/01 04:57:52;;;;;;;30.90;19.40;;;;;;;0.59;89.28;99576.60;216277;1253;60562;-74
2024/01/01 05:02:43;;;;;;;29.20;19.90;;;;;;;0.59;89.58;99576.95;216211;1253;60398;-74
2024/01/01 05:07:37;;;;;;;33.00;21.70;;;;;;;0.58;89.57;99584.60;216255;1253;60461;-74
2024/01/01 05:12:28;;;;;;;30.40;20.80;;;;;;;0.62;89.54;99581.84;216288;1253;60920;-74
2024/01/01 05:17:19;;;;;;;33.40;21.40;;;;;;;0.65;89.54;99578.39;216333;1253;60570;-74
2024/01/01 05:22:11;;;;;;;33.70;19.80;;;;;;;0.68;89.90;99575.94;216371;1256;60309;-75
2024/01/01 05:27:03;;;;;;;34.60;21.00;;;;;;;0.73;89.78;99575.61;216358;1256;60433;-75
2024/01/01 05:31:55;;;;;;;30.50;20.40;;;;;;;0.80;89.73;99578.76;216401;1253;60443;-74
2024/01/01 05:36:46;;;;;;;29.40;19.90;;;;;;;0.86;89.80;99580.20;216339;1252;74149;-75
2024/01/01 05:41:38;;;;;;;32.60;21.10;;;;;;;0.93;90.11;99580.79;216323;1253;60460;-74
2024/01/01 05:46:31;;;;;;;30.50;20.00;;;;;;;0.99;90.34;99576.42;216190;1252;60502;-75
2024/01/01 05:51:22;;;;;;;36.30;21.10;;;;;;;1.04;90.25;99575.57;216127;1252;72485;-74
2024/01/01 05:56:14;;;;;;;28.10;18.50;;;;;;;1.06;90.29;99571.74;216340;1252;60555;-74
2024/01/01 06:01:06;;;;;;;29.10;20.10;;;;;;;1.10;90.18;99572.89;216345;1253;60479;-75
2024/01/01 06:05:57;;;;;;;34.80;21.30;;;;;;;1.13;90.27;99582.05;216213;1253;60457;-75
2024/01/01 06:10:49;;;;;;;30.50;21.60;;;;;;;1.19;90.42;99581.05;216254;1253;60468;-75
2024/01/01 06:15:41;;;;;;;33.10;22.90;;;;;;;1.23;90.59;99589.05;216254;1253;60444;-74
2024/01/01 06:20:32;;;;;;;34.70;22.70;;;;;;;1.29;90.47;99575.43;216319;1254;67917;-75
2024/01/01 06:25:24;;;;;;;34.10;21.20;;;;;;;1.33;90.72;99565.52;216248;1254;60409;-75
2024/01/01 06:30:15;;;;;;;33.80;20.70;;;;;;;1.36;90.66;99571.61;216265;1253;60889;-74
2024/01/01 06:35:07;;;;;;;31.70;20.70;;;;;;;1.39;90.64;99574.26;216306;1253;60469;-74
2024/01/01 06:39:58;;;;;;;34.90;22.70;;;;;;;1.43;90.89;99576.63;216268;1253;60444;-74
2024/01/01 06:44:50;;;;;;;37.70;23.00;;;;;;;1.47;91.04;99563.80;216248;1252;61010;-74
2024/01/01 06:49:42;;;;;;;36.50;20.80;;;;;;;1.51;90.93;99562.91;216225;1253;73830;-75
2024/01/01 06:54:34;;;;;;;35.10;23.80;;;;;;;1.55;91.15;99572.24;216246;1252;60530;-74
2024/01/01 06:59:28;;;;;;;37.70;23.10;;;;;;;1.58;91.05;99579.19;216382;1253;60480;-74
2024/01/01 07:04:20;;;;;;;48.30;25.10;;;;;;;1.63;90.92;99570.65;216224;1252;71470;-74
2024/01/01 07:09:12;;;;;;;43.20;26.00;;;;;;;1.67;91.32;99567.20;216192;1256;60449;-75
2024/01/01 07:14:03;;;;;;;43.80;23.60;;;;;;;1.71;91.16;99564.61;216425;1252;60394;-75
2024/01/01 07:18:55;;;;;;;45.40;24.20;;;;;;;1.72;91.13;99573.69;216384;1255;60454;-73
2024/01/01 07:23:46;;;;;;;45.40;25.50;;;;;;;1.73;91.18;99575.61;216308;1253;60534;-74
2024/01/01 07:28:37;;;;;;;47.40;25.50;;;;;;;1.77;91.18;99574.90;216416;1253;60523;-74
2024/01/01 07:33:29;;;;;;;46.50;27.00;;;;;;;1.83;91.43;99575.10;216327;1253;65927;-74
2024/01/01 07:38:20;;;;;;;54.40;29.50;;;;;;;1.86;91.66;99571.78;216294;1252;60447;-74
2024/01/01 07:43:12;;;;;;;44.40;25.20;;;;;;;1.89;91.56;99570.86;216413;1253;60530;-73
2024/01/01 07:48:05;;;;;;;56.60;31.40;;;;;;;1.92;91.43;99580.02;216202;1253;60457;-73
2024/01/01 07:52:58;;;;;;;55.20;29.40;;;;;;;1.94;91.53;99579.55;216134;1253;163873;-73
2024/01/01 07:57:50;;;;;;;63.10;32.10;;;;;;;1.97;91.59;99580.33;216334;1252;60463;-73
2024/01/01 08:02:43;;;;;;;54.00;28.10;;;;;;;2.02;91.74;99585.13;216248;1252;60539;-74
2024/01/01 08:07:35;;;;;;;62.00;30.70;;;;;;;2.07;91.57;99590.23;216335;1253;60482;-73
2024/01/01 08:12:26;;;;;;;63.20;30.50;;;;;;;2.07;91.48;99583.25;216273;1253;60450;-73
2024/01/01 08:17:18;;;;;;;66.30;34.60;;;;;;;2.11;91.63;99583.04;216225;1253;66306;-73
2024/01/01 08:22:10;;;;;;;64.90;33.30;;;;;;;2.15;91.64;99574.77;216228;1255;60521;-73
2024/01/01 08:27:01;;;;;;;68.60;34.40;;;;;;;2.18;91.83;99567.02;216269;1253;60553;-73
2024/01/01 08:31:53;;;;;;;56.40;31.40;;;;;;;2.20;91.76;99566.58;216305;1253;60445;-73
2024/01/01 08:36:44;;;;;;;65.00;32.50;;;;;;;2.23;92.10;99558.65;216257;1253;60528;-74
2024/01/01 08:41:45;;;;;;;61.30;28.70;;;;;;;2.28;91.95;99563.56;216412;1253;60505;-73
2024/01/01 08:46:37;;;;;;;65.00;31.00;;;;;;;2.30;91.66;99560.55;216327;1252;73663;-74
2024/01/01 08:51:31;;;;;;;70.80;33.50;;;;;;;2.33;91.76;99557.73;216329;1252;72864;-73
2024/01/01 08:56:23;;;;;;;60.00;32.30;;;;;;;2.36;91.65;99555.27;216323;1253;60547;-73
2024/01/01 09:01:14;;;;;;;67.70;35.00;;;;;;;2.39;91.85;99551.76;216369;1253;60553;-73
2024/01/01 09:06:06;;;;;;;66.80;34.40;;;;;;;2.41;91.65;99551.32;216284;1253;60488;-74
2024/01/01 09:10:57;;;;;;;67.60;34.90;;;;;;;2.44;91.94;99552.41;216309;1252;60452;-74
2024/01/01 09:15:49;;;;;;;68.20;34.50;;;;;;;2.46;92.07;99541.55;216298;1253;60569;-73
2024/01/01 09:20:41;;;;;;;69.20;34.50;;;;;;;2.49;92.12;99535.84;216393;1253;66200;-74
2024/01/01 09:25:34;;;;;;;63.60;34.30;;;;;;;2.51;91.99;99534.52;216325;1252;60457;-73
2024/01/01 09:30:26;;;;;;;57.10;31.50;;;;;;;2.53;92.13;99539.36;216223;1253;60589;-73
2024/01/01 09:35:18;;;;;;;57.50;31.00;;;;;;;2.54;92.09;99540.28;216262;1253;60466;-73
2024/01/01 09:40:10;;;;;;;54.30;30.90;;;;;;;2.57;91.96;99534.21;216315;1253;60517;-73
2024/01/01 09:45:02;;;;;;;57.80;31.40;;;;;;;2.59;91.71;99528.77;216287;1253;71241;-74
2024/01/01 09:49:57;;;;;;;51.10;29.90;;;;;;;2.59;91.76;99523.30;216286;1253;61107;-74
2024/01/01 09:54:49;;;;;;;50.90;30.30;;;;;;;2.62;92.25;99521.02;216379;1253;60413;-74
2024/01/01 09:59:41;;;;;;;52.00;27.70;;;;;;;2.65;91.96;99518.69;216381;1252;60467;-74
2024/01/01 10:04:34;;;;;;;50.00;28.60;;;;;;;2.66;91.78;99513.77;216282;1253;67153;-73
2024/01/01 10:09:25;;;;;;;51.10;28.40;;;;;;;2.69;91.82;99510.41;216193;1253;60429;-75
2024/01/01 10:14:17;;;;;;;48.20;27.60;;;;;;;2.71;91.86;99504.83;216284;1253;60531;-75
2024/01/01 10:19:09;;;;;;;47.30;27.10;;;;;;;2.76;91.81;99496.92;216300;1252;60464;-75
2024/01/01 10:24:13;;;;;;;39.20;25.80;;;;;;;2.79;91.85;99496.16;216301;1253;72508;-75
2024/01/01 10:29:25;;;;;;;40.00;25.30;;;;;;;2.83;92.04;99488.91;216282;1252;71317;-75
2024/01/01 10:34:18;;;;;;;40.10;26.70;;;;;;;2.83;91.76;99483.27;216296;1253;60457;-74
2024/01/01 10:39:10;;;;;;;42.10;24.90;;;;;;;2.84;91.93;99481.41;216015;1253;66004;-75
2024/01/01 10:44:04;;;;;;;41.50;25.70;;;;;;;2.87;91.95;99474.16;216026;1252;60445;-74
2024/01/01 10:48:56;;;;;;;41.20;25.70;;;;;;;2.90;92.13;99474.73;216141;1255;73921;-75
2024/01/01 10:54:16;;;;;;;41.60;26.20;;;;;;;2.90;91.97;99470.30;216144;1253;60531;-74
2024/01/01 10:59:20;;;;;;;43.60;27.00;;;;;;;2.91;92.15;99470.65;216233;1253;60434;-74
2024/01/01 11:04:12;;;;;;;38.70;26.30;;;;;;;2.92;91.68;99465.72;216362;1252;65816;-74
2024/01/01 11:09:19;;;;;;;39.70;25.70;;;;;;;2.93;92.21;99462.99;216248;1253;60584;-75
2024/01/01 11:14:23;;;;;;;45.30;28.90;;;;;;;2.93;92.14;99461.27;216251;1253;73525;-75
2024/01/01 11:19:35;;;;;;;40.00;25.70;;;;;;;2.92;92.07;99452.18;216150;1253;71417;-75
2024/01/01 11:24:42;;;;;;;41.40;27.20;;;;;;;2.91;91.96;99445.14;216157;1253;60466;-75
2024/01/01 11:29:34;;;;;;;;;;;;;;;2.91;91.98;99437.45;216172;1252;66867;-75
2024/01/01 11:34:25;;;;;;;36.40;22.30;;;;;;;2.91;91.61;99436.25;216137;1255;61089;-75
2024/01/01 11:39:24;;;;;;;38.80;24.70;;;;;;;2.92;91.58;99436.95;216164;1255;60541;-75
2024/01/01 11:44:17;;;;;;;31.90;21.50;;;;;;;2.92;91.68;99433.03;216217;1253;71745;-75
2024/01/01 11:49:09;;;;;;;35.70;21.80;;;;;;;2.90;91.83;99431.95;216193;1253;61119;-75
2024/01/01 11:54:11;;;;;;;32.00;22.00;;;;;;;2.91;91.47;99429.92;216241;1253;60614;-75
2024/01/01 11:59:03;;;;;;;29.90;21.40;;;;;;;2.93;91.94;99422.95;216276;1253;60480;-75
2024/01/01 12:03:56;;;;;;;32.00;20.60;;;;;;;2.94;92.09;99429.13;216289;1253;60399;-75
2024/01/01 12:08:47;;;;;;;32.40;21.30;;;;;;;2.93;91.82;99427.41;216177;1253;60549;-75
2024/01/01 12:13:39;;;;;;;31.50;21.00;;;;;;;2.93;91.94;99430.32;216101;1253;60565;-75
2024/01/01 12:18:30;;;;;;;32.10;21.90;;;;;;;2.91;91.98;99430.77;216223;1253;60492;-75
2024/01/01 12:23:25;;;;;;;33.90;23.60;;;;;;;2.91;92.15;99426.14;216179;1252;61778;-75
2024/01/01 12:28:16;;;;;;;34.60;23.80;;;;;;;2.91;91.95;99423.92;216223;1253;65592;-75
2024/01/01 12:33:12;;;;;;;35.50;23.90;;;;;;;2.91;91.86;99425.64;216171;1253;60566;-75
2024/01/01 12:38:08;;;;;;;32.50;23.00;;;;;;;2.92;91.93;99424.80;216152;1253;71441;-74
2024/01/01 12:43:01;;;;;;;35.80;24.10;;;;;;;2.92;92.28;99423.09;216031;1253;72439;-76
2024/01/01 12:47:52;;;;;;;33.20;22.50;;;;;;;2.90;92.03;99420.30;216162;1251;60440;-75
2024/01/01 12:52:44;;;;;;;37.10;24.50;;;;;;;2.89;91.88;99417.53;216286;1255;60450;-75
2024/01/01 12:57:35;;;;;;;32.50;23.50;;;;;;;2.88;92.30;99421.45;216244;1253;60510;-75
2024/01/01 13:02:27;;;;;;;34.40;25.10;;;;;;;2.86;92.05;99421.91;216261;1253;60553;-75
2024/01/01 13:07:18;;;;;;;33.70;25.10;;;;;;;2.86;92.42;99421.39;216262;1253;60531;-76
2024/01/01 13:12:10;;;;;;;37.70;26.20;;;;;;;2.86;92.11;99417.29;216088;1253;67703;-74
2024/01/01 13:17:05;;;;;;;33.80;23.40;;;;;;;2.87;92.13;99416.79;216240;1255;60427;-75
2024/01/01 13:21:56;;;;;;;37.80;25.70;;;;;;;2.86;92.60;99413.86;216108;1253;60480;-74
2024/01/01 13:26:48;;;;;;;35.60;25.70;;;;;;;2.88;92.67;99413.23;216239;1253;60420;-75
2024/01/01 13:31:39;;;;;;;34.60;24.00;;;;;;;2.88;92.68;99416.30;216274;1253;73774;-75
2024/01/01 13:36:31;;;;;;;32.40;23.20;;;;;;;2.88;92.48;99413.92;216234;1253;60585;-75
2024/01/01 13:41:23;;;;;;;28.70;20.80;;;;;;;2.86;92.39;99414.04;216290;1255;60454;-75
2024/01/01 13:46:14;;;;;;;27.50;19.70;;;;;;;2.85;92.43;99413.16;216231;1253;71853;-75
2024/01/01 13:51:06;;;;;;;28.80;19.40;;;;;;;2.84;92.31;99412.95;216117;1252;60547;-75
2024/01/01 13:55:57;;;;;;;30.30;20.40;;;;;;;2.83;92.68;99410.70;216199;1252;60464;-75
2024/01/01 14:00:50;;;;;;;25.80;19.60;;;;;;;2.82;92.64;99407.10;216166;1253;60597;-75
2024/01/01 14:05:42;;;;;;;27.10;21.90;;;;;;;2.82;92.51;99403.52;216159;1253;60463;-75
2024/01/01 14:10:33;;;;;;;26.00;19.10;;;;;;;2.82;92.68;99403.14;216234;1253;60538;-75
2024/01/01 14:15:26;;;;;;;26.40;18.70;;;;;;;2.81;92.33;99404.67;216239;1253;60396;-75
2024/01/01 14:20:18;;;;;;;27.90;18.30;;;;;;;2.81;92.59;99405.34;216212;1252;60436;-74
2024/01/01 14:25:09;;;;;;;23.00;17.40;;;;;;;2.79;92.68;99401.19;216164;1253;60466;-74
2024/01/01 14:30:01;;;;;;;29.50;21.60;;;;;;;2.79;92.75;99402.39;216316;1253;60437;-74
2024/01/01 14:34:52;;;;;;;24.10;17.80;;;;;;;2.79;92.27;99396.75;216181;1253;73561;-74
2024/01/01 14:39:44;;;;;;;23.10;16.00;;;;;;;2.79;92.72;99395.36;216248;1255;60600;-74
2024/01/01 14:44:35;;;;;;;20.10;16.70;;;;;;;2.78;92.63;99393.63;216282;1253;60527;-75
2024/01/01 14:49:27;;;;;;;18.80;15.10;;;;;;;2.77;92.42;99400.65;216115;1253;72743;-75
2024/01/01 14:54:19;;;;;;;20.80;16.40;;;;;;;2.77;92.46;99402.33;216319;1253;60458;-75
2024/01/01 14:59:11;;;;;;;21.10;16.50;;;;;;;2.76;92.67;99402.65;216321;1253;60528;-74
2024/01/01 15:04:03;;;;;;;19.50;15.00;;;;;;;2.76;92.53;99405.38;216196;1253;60560;-75
2024/01/01 15:08:54;;;;;;;20.30;15.30;;;;;;;2.76;92.61;99410.34;216214;1253;60425;-75
2024/01/01 15:13:46;;;;;;;18.30;14.90;;;;;;;2.75;92.49;99408.60;216278;1253;60470;-75
2024/01/01 15:18:38;;;;;;;25.40;17.50;;;;;;;2.75;92.79;99404.84;216390;1253;65460;-74
2024/01/01 15:23:31;;;;;;;22.10;16.10;;;;;;;2.75;92.62;99408.42;216251;1253;60451;-74
2024/01/01 15:28:23;;;;;;;20.60;16.50;;;;;;;2.74;92.67;99412.85;216205;1253;60541;-74
2024/01/01 15:33:14;;;;;;;23.90;18.60;;;;;;;2.72;92.67;99408.36;216133;1253;60597;-75
2024/01/01 15:38:06;;;;;;;20.30;17.20;;;;;;;2.71;92.59;99407.81;216255;1253;75237;-75
2024/01/01 15:42:58;;;;;;;21.30;16.10;;;;;;;2.71;92.63;99410.71;216175;1253;60476;-75
2024/01/01 15:47:51;;;;;;;20.10;15.70;;;;;;;2.72;92.76;99411.77;216252;1253;60562;-74
2024/01/01 15:52:42;;;;;;;21.00;15.10;;;;;;;2.70;92.92;99411.88;216250;1253;72439;-74
2024/01/01 15:57:34;;;;;;;18.80;15.40;;;;;;;2.70;92.92;99413.95;216280;1253;60555;-74
2024/01/01 16:02:30;;;;;;;21.80;16.60;;;;;;;2.72;92.65;99418.08;216255;1253;60441;-75
2024/01/01 16:07:21;;;;;;;20.70;16.10;;;;;;;2.72;92.98;99426.65;216236;1253;60428;-75
2024/01/01 16:12:13;;;;;;;23.60;17.50;;;;;;;2.74;93.13;99428.77;216175;1253;60461;-73
2024/01/01 16:17:06;;;;;;;21.30;17.60;;;;;;;2.74;92.83;99428.59;216298;1252;60548;-73
2024/01/01 16:21:57;;;;;;;26.10;18.70;;;;;;;2.75;93.07;99434.44;216131;1253;65834;-72
2024/01/01 16:26:49;;;;;;;28.10;20.80;;;;;;;2.77;93.11;99436.21;216246;1253;60400;-75
2024/01/01 16:31:41;;;;;;;28.30;20.30;;;;;;;2.77;92.95;99437.42;216289;1253;60492;-75
2024/01/01 16:36:33;;;;;;;25.60;19.70;;;;;;;2.79;93.10;99435.23;216247;1253;60890;-75
2024/01/01 16:41:25;;;;;;;26.20;21.20;;;;;;;2.79;93.02;99437.30;216309;1253;60534;-75
2024/01/01 16:46:17;;;;;;;26.10;19.90;;;;;;;2.81;92.90;99436.14;216246;1253;60436;-75
2024/01/01 16:51:09;;;;;;;26.80;20.50;;;;;;;2.84;93.25;99434.85;216347;1253;60534;-74
2024/01/01 16:56:00;;;;;;;26.40;19.90;;;;;;;2.85;93.10;99429.77;216253;1252;72632;-75
2024/01/01 17:00:53;;;;;;;28.00;21.80;;;;;;;2.85;93.26;99427.02;216191;1253;60468;-74
2024/01/01 17:05:46;;;;;;;25.60;20.00;;;;;;;2.85;93.07;99424.29;216162;1253;60956;-74
2024/01/01 17:10:37;;;;;;;29.50;22.30;;;;;;;2.86;93.18;99423.11;216272;1253;60458;-75
2024/01/01 17:15:29;;;;;;;37.80;27.50;;;;;;;2.87;93.33;99426.04;216257;1255;60872;-74
2024/01/01 17:20:20;;;;;;;37.90;28.30;;;;;;;2.90;93.63;99433.15;216209;1253;60462;-74
2024/01/01 17:25:12;;;;;;;37.80;28.10;;;;;;;2.95;93.82;99439.95;216151;1253;60499;-74
2024/01/01 17:30:04;;;;;;;41.50;30.20;;;;;;;2.99;93.85;99438.87;216265;1255;60524;-75
2024/01/01 17:34:56;;;;;;;43.00;32.00;;;;;;;3.05;94.23;99448.95;216138;1253;74812;-75
2024/01/01 17:39:48;;;;;;;48.50;34.30;;;;;;;3.10;94.28;99452.34;216172;1253;60565;-74
2024/01/01 17:44:40;;;;;;;55.70;35.90;;;;;;;3.16;94.25;99457.29;216071;1253;60475;-74
2024/01/01 17:49:34;;;;;;;51.50;36.20;;;;;;;3.22;94.26;99456.60;216071;1253;60455;-74
2024/01/01 17:54:26;;;;;;;55.10;37.30;;;;;;;3.28;94.74;99459.99;216208;1253;61004;-74
2024/01/01 17:59:18;;;;;;;65.50;41.00;;;;;;;3.33;94.79;99460.30;216130;1255;60592;-74
2024/01/01 18:04:11;;;;;;;60.00;38.20;;;;;;;3.39;94.98;99452.74;216229;1253;60469;-75
2024/01/01 18:09:03;;;;;;;61.70;40.00;;;;;;;3.43;94.91;99455.27;216225;1256;60518;-74
2024/01/01 18:13:55;;;;;;;60.50;39.50;;;;;;;3.48;94.86;99460.49;216264;1253;60465;-74
2024/01/01 18:18:46;;;;;;;62.30;39.70;;;;;;;3.51;94.83;99464.87;216202;1253;73132;-74
2024/01/01 18:23:38;;;;;;;69.00;41.90;;;;;;;3.54;95.08;99464.94;216170;1255;60561;-74
2024/01/01 18:28:29;;;;;;;62.00;40.10;;;;;;;3.56;95.14;99465.84;216280;1253;60474;-74
2024/01/01 18:33:22;;;;;;;69.60;44.90;;;;;;;3.58;95.16;99468.31;216272;1255;72571;-72
2024/01/01 18:38:14;;;;;;;66.50;41.20;;;;;;;3.61;95.27;99475.41;216233;1254;60565;-75
2024/01/01 18:43:05;;;;;;;59.80;38.60;;;;;;;3.64;95.14;99472.21;216244;1253;60390;-74
2024/01/01 18:47:57;;;;;;;75.30;43.00;;;;;;;3.65;95.21;99478.94;216281;1256;60469;-75
2024/01/01 18:52:49;;;;;;;68.70;41.40;;;;;;;3.66;95.20;99480.16;216144;1254;65796;-73
2024/01/01 18:57:40;;;;;;;67.10;39.60;;;;;;;3.68;95.48;99484.33;216209;1256;60456;-74
2024/01/01 19:02:33;;;;;;;70.00;42.30;;;;;;;3.69;95.37;99485.71;216263;1255;60534;-74
2024/01/01 19:07:24;;;;;;;69.70;40.70;;;;;;;3.70;95.51;99492.77;216421;1257;60520;-74
2024/01/01 19:12:16;;;;;;;72.50;44.40;;;;;;;3.71;95.46;99494.51;216242;1256;60850;-74
2024/01/01 19:17:07;;;;;;;72.30;43.50;;;;;;;3.72;95.40;99494.86;216256;1254;61629;-74
2024/01/01 19:21:59;;;;;;;74.90;43.40;;;;;;;3.72;95.49;99494.70;216067;1254;71621;-75
2024/01/01 19:26:53;;;;;;;71.00;42.20;;;;;;;3.72;95.54;99497.28;216145;1257;60442;-74
2024/01/01 19:31:44;;;;;;;75.60;43.60;;;;;;;3.74;95.57;99504.69;216133;1257;60451;-75
2024/01/01 19:36:36;;;;;;;76.40;43.90;;;;;;;3.75;95.47;99507.80;216298;1256;60534;-74
2024/01/01 19:41:27;;;;;;;62.50;37.90;;;;;;;3.75;95.47;99512.94;216261;1254;60456;-75
2024/01/01 19:46:20;;;;;;;83.20;45.70;;;;;;;3.77;95.56;99515.90;216180;1256;66673;-75
2024/01/01 19:51:11;;;;;;;82.30;45.50;;;;;;;3.77;95.60;99517.13;216066;1256;160078;-75
2024/01/01 19:56:03;;;;;;;77.20;46.20;;;;;;;3.78;95.40;99516.79;216048;1255;60402;-75
2024/01/01 20:00:54;;;;;;;74.60;45.20;;;;;;;3.78;95.59;99517.48;215977;1254;60531;-74
2024/01/01 20:05:46;;;;;;;75.90;44.70;;;;;;;3.79;95.50;99516.81;216190;1256;73497;-74
2024/01/01 20:10:38;;;;;;;78.50;44.70;;;;;;;3.79;95.43;99518.70;216169;1254;60463;-75
2024/01/01 20:15:29;;;;;;;80.60;44.20;;;;;;;3.80;95.53;99519.06;216235;1254;60933;-75
2024/01/01 20:20:21;;;;;;;80.10;47.30;;;;;;;3.81;95.50;99518.06;216184;1252;72472;-75
2024/01/01 20:25:13;;;;;;;67.40;40.80;;;;;;;3.81;95.65;99519.79;216249;1256;60604;-75
2024/01/01 20:30:07;;;;;;;70.70;44.30;;;;;;;3.82;95.72;99522.73;216273;1253;60658;-75
2024/01/01 20:34:59;;;;;;;70.30;41.20;;;;;;;3.84;95.76;99524.15;216340;1255;60421;-75
2024/01/01 20:39:51;;;;;;;69.40;40.90;;;;;;;3.85;95.77;99528.27;216125;1254;60423;-75
2024/01/01 20:44:43;;;;;;;63.20;38.80;;;;;;;3.85;95.53;99532.05;216220;1254;60447;-74
2024/01/01 20:49:35;;;;;;;68.30;40.30;;;;;;;3.86;95.56;99528.80;216255;1254;60571;-75
2024/01/01 20:54:26;;;;;;;63.10;40.70;;;;;;;3.86;95.74;99540.12;216186;1254;60420;-75
2024/01/01 20:59:18;;;;;;;59.90;36.80;;;;;;;3.87;95.47;99541.52;215932;1254;60504;-75
2024/01/01 21:04:09;;;;;;;61.20;38.10;;;;;;;3.88;95.59;99536.40;216294;1253;60495;-75
2024/01/01 21:09:03;;;;;;;60.80;38.50;;;;;;;3.89;95.55;99540.54;216047;1254;73752;-75
2024/01/01 21:13:54;;;;;;;59.60;35.80;;;;;;;3.89;95.59;99549.29;216232;1253;73486;-75
2024/01/01 21:18:46;;;;;;;57.50;37.80;;;;;;;3.90;95.68;99559.92;216118;1254;60565;-75
2024/01/01 21:23:38;;;;;;;60.50;34.40;;;;;;;3.91;95.64;99557.89;216295;1254;60475;-75
2024/01/01 21:28:29;;;;;;;58.00;34.60;;;;;;;3.91;95.65;99562.39;216296;1252;60872;-75
2024/01/01 21:33:21;;;;;;;60.40;36.20;;;;;;;3.93;95.60;99564.65;216160;1256;60464;-75
2024/01/01 21:38:13;;;;;;;57.10;34.00;;;;;;;3.94;95.50;99569.13;216378;1254;60463;-75
2024/01/01 21:43:05;;;;;;;53.40;31.90;;;;;;;3.95;95.64;99569.48;216188;1254;65083;-75
2024/01/01 21:47:57;;;;;;;57.90;32.50;;;;;;;3.96;95.52;99574.50;216292;1256;60529;-75
2024/01/01 21:52:55;;;;;;;55.20;30.90;;;;;;;3.96;95.68;99577.41;216249;1254;60530;-75
2024/01/01 21:57:46;;;;;;;54.80;31.70;;;;;;;3.97;95.50;99575.20;216373;1254;71254;-75
2024/01/01 22:02:38;;;;;;;52.90;31.40;;;;;;;3.97;95.67;99576.23;216360;1254;60555;-75
2024/01/01 22:07:30;;;;;;;52.10;31.40;;;;;;;3.98;95.61;99570.45;216336;1254;60563;-75
2024/01/01 22:12:21;;;;;;;49.40;28.70;;;;;;;3.99;95.58;99575.95;216139;1254;60575;-74
2024/01/01 22:17:12;;;;;;;48.70;28.00;;;;;;;3.99;95.55;99574.41;216402;1251;60456;-75
2024/01/01 22:22:06;;;;;;;47.60;27.50;;;;;;;4.00;95.67;99568.09;216344;1254;60444;-75